Pagina principală
METAR-TAF:

METAR-TAF

Aeroporturi :

Cochabamba, Bolivia

Latitudine: 17-25S, longitudine: 066-11W, elevație: 2548 m

Observații meteo curente

Raportul a fost făcut în urmă cu 1 oră și 3 de minute, la 04:00 UTC
Vânt calm
Temperatură 15°C
Umiditate 77%
Presiune 1026 hPa
Vizibilitate de 10 km sau mai mult

METAR: SLCB 250400Z 00000KT 9999 NSC 15/11 Q1026

Ora: 01:03 (05:03 UTC)

Prognoză

Raportul a fost făcut în urmă cu 7 ore și 3 de minute, la 22:00 UTC
Prognoză valabilă de la 25 ora 00 UTC la 25 ora 24 UTC
Vânt 6 kt de la Est/Sud-est
Vizibilitate de 10 km sau mai mult
Nori puțini la o înălțime de 3300 picior
Devenind
de la 25 ora 01 UTC la 25 ora 03 UTC
Vânt kt de la Nord
Devenind
de la 25 ora 17 UTC la 25 ora 19 UTC
Vânt 10 kt de la Vest/Sud-vest

TAF: SLCB 242200Z 2500/2524 12006KT 9999 FEW033 TX31/2519Z TN11/2510Z BECMG 2501/2503 00000KT BECMG 2517/2519 24010KT

Observații și prognoze meteo pentru peste 4.000 de aeroporturi (rapoarte METAR și TAF).

Stațiile disponibile sunt reprezentate pe hartă prin puncte galbene și roșii.

Țineți indicatorul mouse-ului pe punctul dorit pentru a vedea denumirea stației.

Apoi, faceți clic pentru a vedea observațiile și prognozele meteorologice.

Pentru a schimba harta: Pentru mărire, faceți clic pe butoanele verzi cu cruce neagră; pentru micșorare, pe butonul verde cu o liniuță; pentru hărți învecinate, pe săgețile verzi.


METAR-TAF: